Flight Track Log - Related Links

Times and Time Zones

All times are in EDT time to prevent confusion due to time zone crossing. See the HAL138 flight status page for this flight to view local times or setup timezone preferences in your user account.

Time Position Orientation Groundspeed Altitude Reporting Facility
EDT Latitude Longitude Course Direction KTS MPH feet Rate Location/Type
Wed 05:09:15 PM 21.3098 -157.9047 146° Southeast  Level FlightAware Approximate
Wed 05:10:15 PM 21.2595 -157.8446 191° South  Level FlightAware Approximate
Wed 05:11:19 PM 21.2333 -157.8500 118° Southeast 240 276 2,900  Level Honolulu Center
Wed 05:12:19 PM 21.2000 -157.7833 113° Southeast 280 322 5,000 2,281 Climbing Honolulu Center
Wed 05:13:20 PM 21.1667 -157.7000 113° Southeast 300 345 7,500 2,529 Climbing Honolulu Center
Wed 05:14:20 PM 21.1333 -157.6167 123° Southeast 310 357 10,100 2,050 Climbing Honolulu Center
Wed 05:15:20 PM 21.0833 -157.5333 131° Southeast 340 391 11,600 1,884 Climbing Honolulu Center
Wed 05:16:21 PM 21.0167 -157.4500 131° Southeast 350 403 13,900 2,182 Climbing Honolulu Center
Wed 05:17:21 PM 20.9500 -157.3667 131° Southeast 360 414 16,000 1,850 Climbing Honolulu Center
Wed 05:18:21 PM 20.8833 -157.2833 123° Southeast 380 437 17,600 1,488 Climbing Honolulu Center
Wed 05:19:22 PM 20.8333 -157.2000 137° Southeast 400 460 19,000 694 Climbing Honolulu Center
Wed 05:20:22 PM 20.7500 -157.1167 125° Southeast 400 460 19,000  Level Honolulu Center
Wed 05:21:22 PM 20.6833 -157.0167 125° Southeast 390 449 19,000  Level Honolulu Center
Wed 05:22:22 PM 20.6167 -156.9167 137° Southeast 390 449 19,000  Level Honolulu Center
Wed 05:23:23 PM 20.5333 -156.8333 125° Southeast 390 449 19,000  Level Honolulu Center
Wed 05:24:23 PM 20.4667 -156.7333 130° Southeast 400 460 19,000  Level Honolulu Center
Wed 05:25:23 PM 20.4000 -156.6500 110° East 390 449 19,000 -300 Level Honolulu Center
Wed 05:26:23 PM 20.3667 -156.5500 99° East 370 426 18,400 -843 Descending Honolulu Center
Wed 05:27:24 PM 20.3500 -156.4333 100° East 350 403 17,300 -1,279 Descending Honolulu Center
Wed 05:28:25 PM 20.3333 -156.3333 102° East 350 403 15,800 -2,033 Descending Honolulu Center
Wed 05:29:25 PM 20.3167 -156.2500 110° East 320 368 13,200 -2,400 Descending Honolulu Center
Wed 05:30:25 PM 20.2833 -156.1500 102° East 310 357 11,000 -1,850 Descending Honolulu Center
Wed 05:31:25 PM 20.2667 -156.0667 137° Southeast 280 322 9,500 -1,587 Descending Honolulu Center
Wed 05:32:26 PM 20.2167 -156.0167 167° South 270 311 7,800 -1,587 Descending Honolulu Center
Wed 05:33:26 PM 20.1500 -156.0000 191° South 270 311 6,300 -1,450 Descending Honolulu Center
Wed 05:34:26 PM 20.0667 -156.0167 180° South 250 288 4,900 -992 Descending Honolulu Center
Wed 05:35:27 PM 20.0000 -156.0167 180° South 250 288 4,300 -645 Descending Honolulu Center
Wed 05:36:27 PM 19.9333 -156.0167 180° South 250 288 3,600 -700 Descending Honolulu Center

Login

Don't have an account? Register now (free) for customized features, flight alerts, and more!